PWSweather.com
Personal Weather Stations
Station Observations
KVAGLENALL
West Henrico, Glen Allen, VA 23060-6503

West HenricoGlen Allen, VA 23060-6503

Lat: 37.6554, Lon: -77.5693

Elevation: 273

Station Type: Davis Vantage Pro II

www.glenallenweather.com

High Low Average
Temperature 53.6°F12.0°C 32.7°F0.4°C 42.9°F6.1°C
Dew Point 32.3°F0.2°C 17.0°F-8.3°C 25.1°F-3.8°C
Winds 19.0 mph 30.6 kmh 1.0 mph 1.6 kmh 6.0 mph S9.7 kmh S
Wind Gusts 22.2 mph35.7 kmh 2.0 mph3.2 kmh 12.0 mph19.3 kmh
Humidity 72% 30% 51%
Pressure 30.26 in1024.7 mb 30.14 in1020.7 mb -
Precipitation 0.00 in0.0 mm - -
Hour Temp Dew Point Humidity Winds Wind Gusts Pressure Precip Precip Rate Daily Precip Total
12:00 AM 39.6°F4.2°C 26.5°F-3.1°C 59% 8.0 mph NNW12.9 kmh NNW 17.2 mph27.7 kmh 30.21 in1023.0 mb 0.00 in0.0 mm 0.00 in0.0 mm 0.00 in0.0 mm
12:15 AM 39.4°F4.1°C 26.3°F-3.2°C 59% 10.0 mph N16.1 kmh N 15.1 mph24.3 kmh 30.21 in1023.0 mb 0.00 in0.0 mm 0.00 in0.0 mm 0.00 in0.0 mm
12:30 AM 39.0°F3.9°C 26.3°F-3.2°C 60% 9.0 mph NNW14.5 kmh NNW 14.1 mph22.7 kmh 30.22 in1023.4 mb 0.00 in0.0 mm 0.00 in0.0 mm 0.00 in0.0 mm
12:45 AM 38.5°F3.6°C 26.2°F-3.2°C 61% 9.0 mph NE14.5 kmh NE 17.2 mph27.7 kmh 30.22 in1023.4 mb 0.00 in0.0 mm 0.00 in0.0 mm 0.00 in0.0 mm
01:00 AM 37.9°F3.3°C 26.4°F-3.1°C 63% 12.0 mph ENE19.3 kmh ENE 14.1 mph22.7 kmh 30.23 in1023.7 mb 0.00 in0.0 mm 0.00 in0.0 mm 0.00 in0.0 mm
01:15 AM 37.5°F3.1°C 26.4°F-3.1°C 64% 5.0 mph NW8.0 kmh NW 14.1 mph22.7 kmh 30.23 in1023.7 mb 0.00 in0.0 mm 0.00 in0.0 mm 0.00 in0.0 mm
01:30 AM 37.1°F2.8°C 26.4°F-3.1°C 65% 2.0 mph NNE3.2 kmh NNE 12.1 mph19.5 kmh 30.23 in1023.7 mb 0.00 in0.0 mm 0.00 in0.0 mm 0.00 in0.0 mm
01:45 AM 37.0°F2.8°C 26.3°F-3.2°C 65% 14.0 mph N22.5 kmh N 22.2 mph35.7 kmh 30.22 in1023.4 mb 0.00 in0.0 mm 0.00 in0.0 mm 0.00 in0.0 mm
02:00 AM 36.8°F2.7°C 26.5°F-3.1°C 66% 5.0 mph NNW8.0 kmh NNW 11.1 mph17.9 kmh 30.22 in1023.4 mb 0.00 in0.0 mm 0.00 in0.0 mm 0.00 in0.0 mm
02:15 AM 36.7°F2.6°C 26.0°F-3.3°C 65% 3.0 mph NE4.8 kmh NE 15.1 mph24.3 kmh 30.22 in1023.4 mb 0.00 in0.0 mm 0.00 in0.0 mm 0.00 in0.0 mm
02:30 AM 36.8°F2.7°C 26.5°F-3.1°C 66% 5.0 mph N8.0 kmh N 17.2 mph27.7 kmh 30.21 in1023.0 mb 0.00 in0.0 mm 0.00 in0.0 mm 0.00 in0.0 mm
02:45 AM 36.7°F2.6°C 26.4°F-3.1°C 66% 9.0 mph NW14.5 kmh NW 11.1 mph17.9 kmh 30.21 in1023.0 mb 0.00 in0.0 mm 0.00 in0.0 mm 0.00 in0.0 mm
03:00 AM 36.6°F2.6°C 26.3°F-3.2°C 66% 4.0 mph NE6.4 kmh NE 11.1 mph17.9 kmh 30.21 in1023.0 mb 0.00 in0.0 mm 0.00 in0.0 mm 0.00 in0.0 mm
03:15 AM 36.5°F2.5°C 26.6°F-3.0°C 67% 6.0 mph NNE9.7 kmh NNE 12.1 mph19.5 kmh 30.21 in1023.0 mb 0.00 in0.0 mm 0.00 in0.0 mm 0.00 in0.0 mm
03:30 AM 36.4°F2.4°C 26.5°F-3.1°C 67% 8.0 mph N12.9 kmh N 14.1 mph22.7 kmh 30.21 in1023.0 mb 0.00 in0.0 mm 0.00 in0.0 mm 0.00 in0.0 mm
03:45 AM 36.4°F2.4°C 26.5°F-3.1°C 67% 4.0 mph N6.4 kmh N 12.1 mph19.5 kmh 30.21 in1023.0 mb 0.00 in0.0 mm 0.00 in0.0 mm 0.00 in0.0 mm
04:00 AM 36.3°F2.4°C 26.4°F-3.1°C 67% 3.0 mph N4.8 kmh N 8.1 mph13.0 kmh 30.21 in1023.0 mb 0.00 in0.0 mm 0.00 in0.0 mm 0.00 in0.0 mm
04:15 AM 35.9°F2.2°C 26.4°F-3.1°C 68% 4.0 mph NW6.4 kmh NW 13.1 mph21.1 kmh 30.21 in1023.0 mb 0.00 in0.0 mm 0.00 in0.0 mm 0.00 in0.0 mm
04:30 AM 35.9°F2.2°C 26.0°F-3.3°C 67% 5.0 mph WNW8.0 kmh WNW 13.1 mph21.1 kmh 30.22 in1023.4 mb 0.00 in0.0 mm 0.00 in0.0 mm 0.00 in0.0 mm
04:45 AM 35.8°F2.1°C 25.9°F-3.4°C 67% 9.0 mph N14.5 kmh N 9.1 mph14.6 kmh 30.22 in1023.4 mb 0.00 in0.0 mm 0.00 in0.0 mm 0.00 in0.0 mm
05:00 AM 35.6°F2.0°C 25.7°F-3.5°C 67% 3.0 mph N4.8 kmh N 10.1 mph16.3 kmh 30.22 in1023.4 mb 0.00 in0.0 mm 0.00 in0.0 mm 0.00 in0.0 mm
05:15 AM 35.2°F1.8°C 25.7°F-3.5°C 68% 3.0 mph NNW4.8 kmh NNW 13.1 mph21.1 kmh 30.22 in1023.4 mb 0.00 in0.0 mm 0.00 in0.0 mm 0.00 in0.0 mm
05:30 AM 34.8°F1.6°C 25.7°F-3.5°C 69% 3.0 mph NW4.8 kmh NW 14.1 mph22.7 kmh 30.22 in1023.4 mb 0.00 in0.0 mm 0.00 in0.0 mm 0.00 in0.0 mm
05:45 AM 34.5°F1.4°C 25.4°F-3.7°C 69% 11.0 mph NNE17.7 kmh NNE 12.1 mph19.5 kmh 30.22 in1023.4 mb 0.00 in0.0 mm 0.00 in0.0 mm 0.00 in0.0 mm
06:00 AM 34.0°F1.1°C 25.2°F-3.8°C 70% 5.0 mph NW8.0 kmh NW 9.1 mph14.6 kmh 30.22 in1023.4 mb 0.00 in0.0 mm 0.00 in0.0 mm 0.00 in0.0 mm
06:15 AM 33.4°F0.8°C 25.0°F-3.9°C 71% 3.0 mph NW4.8 kmh NW 9.1 mph14.6 kmh 30.22 in1023.4 mb 0.00 in0.0 mm 0.00 in0.0 mm 0.00 in0.0 mm
06:30 AM 32.8°F0.4°C 24.8°F-4.0°C 72% 2.0 mph NNE3.2 kmh NNE 11.1 mph17.9 kmh 30.22 in1023.4 mb 0.00 in0.0 mm 0.00 in0.0 mm 0.00 in0.0 mm
06:45 AM 32.7°F0.4°C 24.7°F-4.1°C 72% 3.0 mph N4.8 kmh N 8.1 mph13.0 kmh 30.23 in1023.7 mb 0.00 in0.0 mm 0.00 in0.0 mm 0.00 in0.0 mm
07:00 AM 32.7°F0.4°C 24.7°F-4.1°C 72% 6.0 mph NNW9.7 kmh NNW 8.1 mph13.0 kmh 30.23 in1023.7 mb 0.00 in0.0 mm 0.00 in0.0 mm 0.00 in0.0 mm
07:15 AM 33.0°F0.6°C 24.9°F-3.9°C 72% 1.0 mph NW1.6 kmh NW 12.1 mph19.5 kmh 30.24 in1024.0 mb 0.00 in0.0 mm 0.00 in0.0 mm 0.00 in0.0 mm
07:30 AM 33.7°F0.9°C 25.3°F-3.7°C 71% 5.0 mph NW8.0 kmh NW 11.1 mph17.9 kmh 30.24 in1024.0 mb 0.00 in0.0 mm 0.00 in0.0 mm 0.00 in0.0 mm
07:45 AM 34.8°F1.6°C 26.0°F-3.3°C 70% 5.0 mph NE8.0 kmh NE 18.2 mph29.3 kmh 30.24 in1024.0 mb 0.00 in0.0 mm 0.00 in0.0 mm 0.00 in0.0 mm
08:00 AM 36.3°F2.4°C 26.4°F-3.1°C 67% 12.0 mph NNE19.3 kmh NNE 13.1 mph21.1 kmh 30.25 in1024.4 mb 0.00 in0.0 mm 0.00 in0.0 mm 0.00 in0.0 mm
08:15 AM 37.8°F3.2°C 26.7°F-2.9°C 64% 3.0 mph NNW4.8 kmh NNW 18.2 mph29.3 kmh 30.25 in1024.4 mb 0.00 in0.0 mm 0.00 in0.0 mm 0.00 in0.0 mm
08:30 AM 38.9°F3.8°C 27.4°F-2.6°C 63% 6.0 mph NW9.7 kmh NW 18.2 mph29.3 kmh 30.25 in1024.4 mb 0.00 in0.0 mm 0.00 in0.0 mm 0.00 in0.0 mm
08:45 AM 39.9°F4.4°C 28.0°F-2.2°C 62% 8.0 mph N12.9 kmh N 15.1 mph24.3 kmh 30.25 in1024.4 mb 0.00 in0.0 mm 0.00 in0.0 mm 0.00 in0.0 mm
09:00 AM 40.6°F4.8°C 28.2°F-2.1°C 61% 5.0 mph N8.0 kmh N 14.1 mph22.7 kmh 30.26 in1024.7 mb 0.00 in0.0 mm 0.00 in0.0 mm 0.00 in0.0 mm
09:15 AM 41.7°F5.4°C 28.5°F-1.9°C 59% 14.0 mph ENE22.5 kmh ENE 16.2 mph26.1 kmh 30.26 in1024.7 mb 0.00 in0.0 mm 0.00 in0.0 mm 0.00 in0.0 mm
09:30 AM 42.3°F5.7°C 28.6°F-1.9°C 58% 11.0 mph N17.7 kmh N 13.1 mph21.1 kmh 30.26 in1024.7 mb 0.00 in0.0 mm 0.00 in0.0 mm 0.00 in0.0 mm
09:45 AM 43.4°F6.3°C 28.8°F-1.8°C 56% 11.0 mph N17.7 kmh N 15.1 mph24.3 kmh 30.26 in1024.7 mb 0.00 in0.0 mm 0.00 in0.0 mm 0.00 in0.0 mm
10:00 AM 44.1°F6.7°C 29.4°F-1.4°C 56% 11.0 mph NW17.7 kmh NW 16.2 mph26.1 kmh 30.26 in1024.7 mb 0.00 in0.0 mm 0.00 in0.0 mm 0.00 in0.0 mm
10:15 AM 44.8°F7.1°C 31.0°F-0.6°C 58% 6.0 mph ENE9.7 kmh ENE 10.1 mph16.3 kmh 30.25 in1024.4 mb 0.00 in0.0 mm 0.00 in0.0 mm 0.00 in0.0 mm
10:30 AM 45.8°F7.7°C 30.6°F-0.8°C 55% 9.0 mph NNW14.5 kmh NNW 10.1 mph16.3 kmh 30.25 in1024.4 mb 0.00 in0.0 mm 0.00 in0.0 mm 0.00 in0.0 mm
10:45 AM 46.2°F7.9°C 30.5°F-0.8°C 54% 10.0 mph N16.1 kmh N 10.1 mph16.3 kmh 30.25 in1024.4 mb 0.00 in0.0 mm 0.00 in0.0 mm 0.00 in0.0 mm
11:00 AM 47.0°F8.3°C 31.3°F-0.4°C 54% 4.0 mph NE6.4 kmh NE 12.1 mph19.5 kmh 30.25 in1024.4 mb 0.00 in0.0 mm 0.00 in0.0 mm 0.00 in0.0 mm
11:15 AM 47.8°F8.8°C 31.1°F-0.5°C 52% 8.0 mph NE12.9 kmh NE 15.1 mph24.3 kmh 30.25 in1024.4 mb 0.00 in0.0 mm 0.00 in0.0 mm 0.00 in0.0 mm
11:30 AM 47.8°F8.8°C 31.1°F-0.5°C 52% 11.0 mph NNE17.7 kmh NNE 14.1 mph22.7 kmh 30.24 in1024.0 mb 0.00 in0.0 mm 0.00 in0.0 mm 0.00 in0.0 mm
11:45 AM 48.6°F9.2°C 32.3°F0.2°C 53% 4.0 mph N6.4 kmh N 13.1 mph21.1 kmh 30.24 in1024.0 mb 0.00 in0.0 mm 0.00 in0.0 mm 0.00 in0.0 mm
12:00 PM 49.6°F9.8°C 31.2°F-0.4°C 49% 3.0 mph ENE4.8 kmh ENE 11.1 mph17.9 kmh 30.24 in1024.0 mb 0.00 in0.0 mm 0.00 in0.0 mm 0.00 in0.0 mm
12:15 PM 50.7°F10.4°C 31.2°F-0.4°C 47% 4.0 mph NW6.4 kmh NW 13.1 mph21.1 kmh 30.23 in1023.7 mb 0.00 in0.0 mm 0.00 in0.0 mm 0.00 in0.0 mm
12:30 PM 51.0°F10.6°C 31.5°F-0.3°C 47% 19.0 mph NW30.6 kmh NW 19.2 mph30.9 kmh 30.22 in1023.4 mb 0.00 in0.0 mm 0.00 in0.0 mm 0.00 in0.0 mm
12:45 PM 51.7°F10.9°C 32.1°F0.1°C 47% 7.0 mph NW11.3 kmh NW 8.1 mph13.0 kmh 30.21 in1023.0 mb 0.00 in0.0 mm 0.00 in0.0 mm 0.00 in0.0 mm
01:00 PM 52.3°F11.3°C 29.9°F-1.2°C 42% 2.0 mph NNE3.2 kmh NNE 10.1 mph16.3 kmh 30.20 in1022.7 mb 0.00 in0.0 mm 0.00 in0.0 mm 0.00 in0.0 mm
01:15 PM 52.3°F11.3°C 29.9°F-1.2°C 42% 5.0 mph NW8.0 kmh NW 13.1 mph21.1 kmh 30.20 in1022.7 mb 0.00 in0.0 mm 0.00 in0.0 mm 0.00 in0.0 mm
01:30 PM 53.1°F11.7°C 29.4°F-1.4°C 40% 8.0 mph NE12.9 kmh NE 16.2 mph26.1 kmh 30.19 in1022.4 mb 0.00 in0.0 mm 0.00 in0.0 mm 0.00 in0.0 mm
01:45 PM 53.4°F11.9°C 28.4°F-2.0°C 38% 10.0 mph NNE16.1 kmh NNE 17.2 mph27.7 kmh 30.18 in1022.0 mb 0.00 in0.0 mm 0.00 in0.0 mm 0.00 in0.0 mm
02:00 PM 53.0°F11.7°C 28.7°F-1.8°C 39% 11.0 mph N17.7 kmh N 12.1 mph19.5 kmh 30.18 in1022.0 mb 0.00 in0.0 mm 0.00 in0.0 mm 0.00 in0.0 mm
02:15 PM 53.1°F11.7°C 25.5°F-3.6°C 34% 8.0 mph NNE12.9 kmh NNE 12.1 mph19.5 kmh 30.17 in1021.7 mb 0.00 in0.0 mm 0.00 in0.0 mm 0.00 in0.0 mm
02:30 PM 53.6°F12.0°C 25.9°F-3.4°C 34% 10.0 mph N16.1 kmh N 19.2 mph30.9 kmh 30.17 in1021.7 mb 0.00 in0.0 mm 0.00 in0.0 mm 0.00 in0.0 mm
02:45 PM 53.5°F11.9°C 22.8°F-5.1°C 30% 10.0 mph NNE16.1 kmh NNE 16.2 mph26.1 kmh 30.16 in1021.3 mb 0.00 in0.0 mm 0.00 in0.0 mm 0.00 in0.0 mm
03:00 PM 53.5°F11.9°C 25.1°F-3.8°C 33% 4.0 mph NNW6.4 kmh NNW 12.1 mph19.5 kmh 30.16 in1021.3 mb 0.00 in0.0 mm 0.00 in0.0 mm 0.00 in0.0 mm
03:15 PM 53.3°F11.8°C 26.3°F-3.2°C 35% 1.0 mph NW1.6 kmh NW 13.1 mph21.1 kmh 30.15 in1021.0 mb 0.00 in0.0 mm 0.00 in0.0 mm 0.00 in0.0 mm
03:30 PM 53.6°F12.0°C 25.9°F-3.4°C 34% 5.0 mph NW8.0 kmh NW 13.1 mph21.1 kmh 30.15 in1021.0 mb 0.00 in0.0 mm 0.00 in0.0 mm 0.00 in0.0 mm
03:45 PM 53.2°F11.8°C 24.8°F-4.0°C 33% 10.0 mph SW16.1 kmh SW 11.1 mph17.9 kmh 30.15 in1021.0 mb 0.00 in0.0 mm 0.00 in0.0 mm 0.00 in0.0 mm
04:00 PM 52.9°F11.6°C 23.8°F-4.6°C 32% 6.0 mph NE9.7 kmh NE 16.2 mph26.1 kmh 30.15 in1021.0 mb 0.00 in0.0 mm 0.00 in0.0 mm 0.00 in0.0 mm
04:15 PM 52.5°F11.4°C 24.9°F-3.9°C 34% 5.0 mph NNW8.0 kmh NNW 13.1 mph21.1 kmh 30.15 in1021.0 mb 0.00 in0.0 mm 0.00 in0.0 mm 0.00 in0.0 mm
04:30 PM 52.2°F11.2°C 23.2°F-4.9°C 32% 4.0 mph NNW6.4 kmh NNW 10.1 mph16.3 kmh 30.15 in1021.0 mb 0.00 in0.0 mm 0.00 in0.0 mm 0.00 in0.0 mm
04:45 PM 51.8°F11.0°C 22.9°F-5.1°C 32% 10.0 mph NE16.1 kmh NE 12.1 mph19.5 kmh 30.14 in1020.7 mb 0.00 in0.0 mm 0.00 in0.0 mm 0.00 in0.0 mm
05:00 PM 51.4°F10.8°C 22.5°F-5.3°C 32% 9.0 mph NNE14.5 kmh NNE 17.2 mph27.7 kmh 30.14 in1020.7 mb 0.00 in0.0 mm 0.00 in0.0 mm 0.00 in0.0 mm
05:15 PM 51.0°F10.6°C 22.9°F-5.1°C 33% 4.0 mph N6.4 kmh N 17.2 mph27.7 kmh 30.15 in1021.0 mb 0.00 in0.0 mm 0.00 in0.0 mm 0.00 in0.0 mm
05:30 PM 50.2°F10.1°C 22.2°F-5.4°C 33% 10.0 mph N16.1 kmh N 15.1 mph24.3 kmh 30.15 in1021.0 mb 0.00 in0.0 mm 0.00 in0.0 mm 0.00 in0.0 mm
05:45 PM 49.4°F9.7°C 22.2°F-5.4°C 34% 4.0 mph NNW6.4 kmh NNW 9.1 mph14.6 kmh 30.15 in1021.0 mb 0.00 in0.0 mm 0.00 in0.0 mm 0.00 in0.0 mm
06:00 PM 48.9°F9.4°C 21.8°F-5.7°C 34% 3.0 mph N4.8 kmh N 12.1 mph19.5 kmh 30.15 in1021.0 mb 0.00 in0.0 mm 0.00 in0.0 mm 0.00 in0.0 mm
06:15 PM 48.1°F8.9°C 21.1°F-6.1°C 34% 8.0 mph NNE12.9 kmh NNE 9.1 mph14.6 kmh 30.15 in1021.0 mb 0.00 in0.0 mm 0.00 in0.0 mm 0.00 in0.0 mm
06:30 PM 47.0°F8.3°C 20.1°F-6.6°C 34% 3.0 mph N4.8 kmh N 4.0 mph6.4 kmh 30.16 in1021.3 mb 0.00 in0.0 mm 0.00 in0.0 mm 0.00 in0.0 mm
06:45 PM 46.2°F7.9°C 20.8°F-6.2°C 36% 4.0 mph N6.4 kmh N 8.1 mph13.0 kmh 30.16 in1021.3 mb 0.00 in0.0 mm 0.00 in0.0 mm 0.00 in0.0 mm
07:00 PM 46.0°F7.8°C 21.2°F-6.0°C 37% 2.0 mph NNE3.2 kmh NNE 6.1 mph9.8 kmh 30.15 in1021.0 mb 0.00 in0.0 mm 0.00 in0.0 mm 0.00 in0.0 mm
07:15 PM 45.9°F7.7°C 20.5°F-6.4°C 36% 5.0 mph NNE8.0 kmh NNE 6.1 mph9.8 kmh 30.16 in1021.3 mb 0.00 in0.0 mm 0.00 in0.0 mm 0.00 in0.0 mm
07:30 PM 45.5°F7.5°C 20.1°F-6.6°C 36% 4.0 mph NNE6.4 kmh NNE 8.1 mph13.0 kmh 30.16 in1021.3 mb 0.00 in0.0 mm 0.00 in0.0 mm 0.00 in0.0 mm
07:45 PM 45.1°F7.3°C 20.4°F-6.4°C 37% 5.0 mph N8.0 kmh N 9.1 mph14.6 kmh 30.16 in1021.3 mb 0.00 in0.0 mm 0.00 in0.0 mm 0.00 in0.0 mm
08:00 PM 44.3°F6.8°C 20.9°F-6.2°C 39% 3.0 mph NE4.8 kmh NE 6.1 mph9.8 kmh 30.17 in1021.7 mb 0.00 in0.0 mm 0.00 in0.0 mm 0.00 in0.0 mm
08:15 PM 43.3°F6.3°C 19.4°F-7.0°C 38% 7.0 mph NE11.3 kmh NE 7.1 mph11.4 kmh 30.17 in1021.7 mb 0.00 in0.0 mm 0.00 in0.0 mm 0.00 in0.0 mm
08:30 PM 43.3°F6.3°C 20.0°F-6.7°C 39% 3.0 mph N4.8 kmh N 11.1 mph17.9 kmh 30.18 in1022.0 mb 0.00 in0.0 mm 0.00 in0.0 mm 0.00 in0.0 mm
08:45 PM 42.9°F6.1°C 19.7°F-6.8°C 39% 3.0 mph N4.8 kmh N 4.0 mph6.4 kmh 30.18 in1022.0 mb 0.00 in0.0 mm 0.00 in0.0 mm 0.00 in0.0 mm
09:00 PM 42.6°F5.9°C 20.0°F-6.7°C 40% 3.0 mph NNW4.8 kmh NNW 5.1 mph8.2 kmh 30.18 in1022.0 mb 0.00 in0.0 mm 0.00 in0.0 mm 0.00 in0.0 mm
09:15 PM 41.2°F5.1°C 19.9°F-6.7°C 42% 1.0 mph NNE1.6 kmh NNE 2.0 mph3.2 kmh 30.18 in1022.0 mb 0.00 in0.0 mm 0.00 in0.0 mm 0.00 in0.0 mm
09:30 PM 41.2°F5.1°C 19.9°F-6.7°C 42% 7.0 mph NNE11.3 kmh NNE 7.1 mph11.4 kmh 30.18 in1022.0 mb 0.00 in0.0 mm 0.00 in0.0 mm 0.00 in0.0 mm
09:45 PM 41.1°F5.1°C 19.8°F-6.8°C 42% 1.0 mph NE1.6 kmh NE 4.0 mph6.4 kmh 30.19 in1022.4 mb 0.00 in0.0 mm 0.00 in0.0 mm 0.00 in0.0 mm
10:00 PM 39.9°F4.4°C 19.8°F-6.8°C 44% 3.0 mph NNE4.8 kmh NNE 4.0 mph6.4 kmh 30.19 in1022.4 mb 0.00 in0.0 mm 0.00 in0.0 mm 0.00 in0.0 mm
10:15 PM 39.8°F4.3°C 19.7°F-6.8°C 44% 4.0 mph NNE6.4 kmh NNE 5.1 mph8.2 kmh 30.18 in1022.0 mb 0.00 in0.0 mm 0.00 in0.0 mm 0.00 in0.0 mm
10:30 PM 39.5°F4.2°C 18.9°F-7.3°C 43% 3.0 mph NE4.8 kmh NE 5.1 mph8.2 kmh 30.19 in1022.4 mb 0.00 in0.0 mm 0.00 in0.0 mm 0.00 in0.0 mm
10:45 PM 38.7°F3.7°C 19.2°F-7.1°C 45% 6.0 mph NNE9.7 kmh NNE 7.1 mph11.4 kmh 30.18 in1022.0 mb 0.00 in0.0 mm 0.00 in0.0 mm 0.00 in0.0 mm
11:00 PM 39.2°F4.0°C 18.1°F-7.7°C 42% 7.0 mph NNE11.3 kmh NNE 10.1 mph16.3 kmh 30.18 in1022.0 mb 0.00 in0.0 mm 0.00 in0.0 mm 0.00 in0.0 mm
11:15 PM 39.3°F4.1°C 18.1°F-7.7°C 42% 5.0 mph NNW8.0 kmh NNW 10.1 mph16.3 kmh 30.18 in1022.0 mb 0.00 in0.0 mm 0.00 in0.0 mm 0.00 in0.0 mm
11:30 PM 39.2°F4.0°C 17.5°F-8.1°C 41% 9.0 mph NNE14.5 kmh NNE 9.1 mph14.6 kmh 30.18 in1022.0 mb 0.00 in0.0 mm 0.00 in0.0 mm 0.00 in0.0 mm
11:45 PM 39.3°F4.1°C 17.0°F-8.3°C 40% 10.0 mph NE16.1 kmh NE 10.1 mph16.3 kmh 30.18 in1022.0 mb 0.00 in0.0 mm 0.00 in0.0 mm 0.00 in0.0 mm